KMMT/MMT METAR and TAF weather

Enter ICAO airport designator
Station Type Date Time Source
KMMT METAR 2020/04/05 11:56 UTC NOAA

KMMT 051156Z AUTO 00000KT 10SM SCT200 11/11 A3007 RMK AO2 SLP185 T01130108 10113 20090 52026 $


Station Type Date Time Source
KMMT Decoded METAR 2020/04/05 11:56 UTC NOAA

McEntire Air National Guard Weather Facility Base, SC, United States (KMMT) 33-55N 080-48W
Apr 05, 2020 - 07:56 AM EDT / 2020.04.05 1156 UTC
Wind: Calm:0
Visibility: 10 mile(s):0
Sky conditions: partly cloudy
Temperature: 52.3 F (11.3 C)
Dew Point: 51.4 F (10.8 C)
Relative Humidity: 96%
Pressure (altimeter): 30.07 in. Hg (1018 hPa)
Pressure tendency: 0.08 inches (2.6 hPa) higher than three hours ago
ob: KMMT 051156Z AUTO 00000KT 10SM SCT200 11/11 A3007 RMK AO2 SLP185 T01130108 10113 20090 52026
cycle: 12

Station Type Date Time Source
KMMT TAF 2020/04/05 07:12 UTC NOAA

TAF KMMT 050700Z 0507/0613 VRB06KT 9999 FEW050 QNH2996INS TX22/0521Z TN08/0511Z

Example: see airport list